createdAt,value
2019-05-01T00:00:16.011Z,957.77
2019-05-01T00:01:09.157Z,957.77
2019-05-01T00:02:09.168Z,957.76
2019-05-01T00:03:09.173Z,957.77
2019-05-01T00:04:09.176Z,957.78
2019-05-01T00:05:09.187Z,957.79
2019-05-01T00:06:09.190Z,957.77
2019-05-01T00:07:09.197Z,957.76
2019-05-01T00:08:09.205Z,957.78
2019-05-01T00:09:09.212Z,957.74
2019-05-01T00:10:09.217Z,957.77
2019-05-01T00:11:09.224Z,957.76
2019-05-01T00:12:09.235Z,957.72
2019-05-01T00:13:09.239Z,957.72
2019-05-01T00:14:09.246Z,957.70
2019-05-01T00:15:09.251Z,957.70
2019-05-01T00:16:09.258Z,957.68
2019-05-01T00:17:09.265Z,957.67
2019-05-01T00:18:09.275Z,957.70
2019-05-01T00:19:09.278Z,957.64
2019-05-01T00:20:09.287Z,957.62
2019-05-01T00:21:09.289Z,957.64
2019-05-01T00:22:09.299Z,957.64
2019-05-01T00:23:09.314Z,957.63
2019-05-01T00:24:09.318Z,957.64
2019-05-01T00:25:09.317Z,957.65
2019-05-01T00:26:09.361Z,957.62
2019-05-01T00:27:09.336Z,957.58
2019-05-01T00:28:09.339Z,957.58
2019-05-01T00:29:09.352Z,957.59
2019-05-01T00:30:09.352Z,957.59
2019-05-01T00:31:09.359Z,957.61
2019-05-01T00:32:09.368Z,957.59
2019-05-01T00:33:09.377Z,957.59
2019-05-01T00:34:09.376Z,957.57
2019-05-01T00:35:09.383Z,957.58
2019-05-01T00:36:09.396Z,957.59
2019-05-01T00:37:09.398Z,957.57
2019-05-01T00:38:09.404Z,957.56
2019-05-01T00:39:09.420Z,957.57
2019-05-01T00:40:09.430Z,957.55
2019-05-01T00:41:09.428Z,957.57
2019-05-01T00:42:09.431Z,957.53
2019-05-01T00:43:09.443Z,957.52
2019-05-01T00:44:09.445Z,957.52
2019-05-01T00:45:09.454Z,957.48
2019-05-01T00:46:09.461Z,957.53
2019-05-01T00:47:09.467Z,957.48
2019-05-01T00:48:09.473Z,957.47
2019-05-01T00:49:09.483Z,957.45
2019-05-01T00:50:09.485Z,957.45
2019-05-01T00:51:09.491Z,957.40
2019-05-01T00:52:09.505Z,957.38
2019-05-01T00:53:09.506Z,957.39
2019-05-01T00:54:09.514Z,957.41
2019-05-01T00:55:09.522Z,957.37
2019-05-01T00:56:09.526Z,957.36
2019-05-01T00:57:09.533Z,957.34
2019-05-01T00:58:09.540Z,957.35
2019-05-01T00:59:09.550Z,957.35
2019-05-01T01:00:09.554Z,957.31
2019-05-01T01:01:09.561Z,957.31
2019-05-01T01:02:09.563Z,957.30
2019-05-01T01:03:09.575Z,957.27
2019-05-01T01:04:09.578Z,957.27
2019-05-01T01:05:09.585Z,957.24
2019-05-01T01:06:09.585Z,957.25
2019-05-01T01:07:09.621Z,957.25
2019-05-01T01:08:09.605Z,957.25
2019-05-01T01:09:09.612Z,957.21
2019-05-01T01:10:09.620Z,957.21
2019-05-01T01:11:09.625Z,957.23
2019-05-01T01:12:09.634Z,957.26
2019-05-01T01:13:09.643Z,957.22
2019-05-01T01:14:09.644Z,957.21
2019-05-01T01:15:09.651Z,957.21
2019-05-01T01:16:09.665Z,957.21
2019-05-01T01:17:09.664Z,957.18
2019-05-01T01:18:09.669Z,957.16
2019-05-01T01:19:09.678Z,957.17
2019-05-01T01:20:09.686Z,957.17
2019-05-01T01:21:09.698Z,957.16
2019-05-01T01:22:09.696Z,957.15
2019-05-01T01:23:09.711Z,957.14
2019-05-01T01:24:09.709Z,957.16
2019-05-01T01:25:09.718Z,957.12
2019-05-01T01:26:09.721Z,957.12
2019-05-01T01:27:09.731Z,957.12
2019-05-01T01:28:09.735Z,957.12
2019-05-01T01:29:09.791Z,957.13
2019-05-01T01:30:09.754Z,957.11
2019-05-01T01:31:09.757Z,957.11
2019-05-01T01:32:09.765Z,957.07
2019-05-01T01:33:09.769Z,957.05
2019-05-01T01:34:09.774Z,957.09
2019-05-01T01:35:09.788Z,957.09
2019-05-01T01:36:09.790Z,957.04
2019-05-01T01:37:09.794Z,957.04
2019-05-01T01:38:09.806Z,957.03
2019-05-01T01:39:09.808Z,957.01
2019-05-01T01:40:09.812Z,957.03
2019-05-01T01:41:09.818Z,957.01
2019-05-01T01:42:09.824Z,957.01
2019-05-01T01:43:09.835Z,956.95
2019-05-01T01:44:09.840Z,956.97
2019-05-01T01:45:09.850Z,956.92
2019-05-01T01:46:09.852Z,956.93
2019-05-01T01:47:09.858Z,956.91
2019-05-01T01:48:09.870Z,956.91
2019-05-01T01:49:09.870Z,956.87
2019-05-01T01:50:09.877Z,956.86
2019-05-01T01:51:09.886Z,956.85
2019-05-01T01:52:09.890Z,956.86
2019-05-01T01:53:09.902Z,956.87
2019-05-01T01:54:09.901Z,956.82
2019-05-01T01:55:09.911Z,956.81
2019-05-01T01:56:09.920Z,956.82
2019-05-01T01:57:09.921Z,956.83
2019-05-01T01:58:09.930Z,956.82
2019-05-01T01:59:09.935Z,956.83
2019-05-01T02:00:09.941Z,956.80
2019-05-01T02:01:10.034Z,956.84
2019-05-01T02:02:09.952Z,956.83
2019-05-01T02:03:09.964Z,956.85
2019-05-01T02:04:09.967Z,956.87
2019-05-01T02:05:09.981Z,956.88
2019-05-01T02:06:09.983Z,956.86
2019-05-01T02:07:09.988Z,956.88
2019-05-01T02:08:09.997Z,956.82
2019-05-01T02:09:10.001Z,956.81
2019-05-01T02:10:10.015Z,956.81
2019-05-01T02:11:10.013Z,956.81
2019-05-01T02:12:10.022Z,956.80
2019-05-01T02:13:10.028Z,956.79
2019-05-01T02:14:10.032Z,956.77
2019-05-01T02:15:10.036Z,956.79
2019-05-01T02:16:10.040Z,956.78
2019-05-01T02:17:10.049Z,956.76
2019-05-01T02:18:10.060Z,956.77
2019-05-01T02:19:10.063Z,956.76
2019-05-01T02:20:10.070Z,956.79
2019-05-01T02:21:10.075Z,956.78
2019-05-01T02:22:10.087Z,956.78
2019-05-01T02:23:10.084Z,956.78
2019-05-01T02:24:10.096Z,956.75
2019-05-01T02:25:10.099Z,956.74
2019-05-01T02:26:10.108Z,956.76
2019-05-01T02:27:10.117Z,956.70
2019-05-01T02:28:10.119Z,956.73
2019-05-01T02:29:10.126Z,956.72
2019-05-01T02:30:10.140Z,956.74
2019-05-01T02:31:26.704Z,956.71
2019-05-01T02:32:10.147Z,956.74
2019-05-01T02:33:10.155Z,956.73
2019-05-01T02:34:10.159Z,956.72
2019-05-01T02:35:10.167Z,956.73
2019-05-01T02:36:10.168Z,956.76
2019-05-01T02:37:10.181Z,956.77
2019-05-01T02:38:10.183Z,956.75
2019-05-01T02:39:10.196Z,956.74
2019-05-01T02:40:10.196Z,956.73
2019-05-01T02:41:10.202Z,956.72
2019-05-01T02:42:10.206Z,956.73
2019-05-01T02:43:10.215Z,956.74
2019-05-01T02:44:10.221Z,956.72
2019-05-01T02:45:10.233Z,956.72
2019-05-01T02:46:10.232Z,956.72
2019-05-01T02:47:10.243Z,956.72
2019-05-01T02:48:10.244Z,956.73
2019-05-01T02:49:10.255Z,956.75
2019-05-01T02:50:10.264Z,956.72
2019-05-01T02:51:10.259Z,956.73
2019-05-01T02:52:10.269Z,956.74
2019-05-01T02:53:10.275Z,956.73
2019-05-01T02:54:17.945Z,956.70
2019-05-01T02:56:14.781Z,956.64
2019-05-01T02:57:14.772Z,956.66
2019-05-01T02:59:20.240Z,956.64
2019-05-01T03:00:20.242Z,956.62
2019-05-01T03:02:24.777Z,956.62
2019-05-01T03:03:24.756Z,956.61
2019-05-01T03:05:18.176Z,956.62
2019-05-01T03:06:18.158Z,956.63
2019-05-01T03:08:22.677Z,956.59
2019-05-01T03:09:22.668Z,956.59
2019-05-01T03:11:27.166Z,956.54
2019-05-01T03:12:27.156Z,956.56
2019-05-01T03:14:31.641Z,956.53
2019-05-01T03:15:31.631Z,956.56
2019-05-01T03:17:37.143Z,956.57
2019-05-01T03:18:37.133Z,956.56
2019-05-01T03:20:41.612Z,956.62
2019-05-01T03:21:41.607Z,956.58
2019-05-01T03:23:46.118Z,956.61
2019-05-01T03:24:46.115Z,956.63
2019-05-01T03:26:51.597Z,956.60
2019-05-01T03:27:51.590Z,956.59
2019-05-01T03:29:56.081Z,956.58
2019-05-01T03:30:56.109Z,956.58
2019-05-01T03:33:01.558Z,956.56
2019-05-01T03:34:01.552Z,956.60
2019-05-01T03:36:06.049Z,956.60
2019-05-01T03:37:06.038Z,956.57
2019-05-01T03:39:10.513Z,956.56
2019-05-01T03:40:12.353Z,956.57
2019-05-01T03:42:14.999Z,956.57
2019-05-01T03:43:15.008Z,956.54
2019-05-01T03:45:08.391Z,956.57
2019-05-01T03:46:08.418Z,956.57
2019-05-01T03:48:12.892Z,956.59
2019-05-01T03:49:12.883Z,956.54
2019-05-01T03:51:17.404Z,956.50
2019-05-01T03:52:17.396Z,956.52
2019-05-01T03:54:21.877Z,956.53
2019-05-01T03:55:21.876Z,956.50
2019-05-01T03:57:26.356Z,956.50
2019-05-01T03:58:26.349Z,956.50
2019-05-01T04:00:30.829Z,956.48
2019-05-01T04:01:30.829Z,956.44
2019-05-01T04:03:35.320Z,956.45
2019-05-01T04:04:35.310Z,956.46
2019-05-01T04:06:39.800Z,956.44
2019-05-01T04:07:39.792Z,956.44
2019-05-01T04:09:44.266Z,956.43
2019-05-01T04:10:44.265Z,956.46
2019-05-01T04:12:48.756Z,956.45
2019-05-01T04:13:48.744Z,956.48
2019-05-01T04:15:54.272Z,956.44
2019-05-01T04:16:54.266Z,956.48
2019-05-01T04:18:58.753Z,956.48
2019-05-01T04:19:58.748Z,956.47
2019-05-01T04:22:03.236Z,956.47
2019-05-01T04:23:03.236Z,956.43
2019-05-01T04:24:56.638Z,956.44
2019-05-01T04:25:56.639Z,956.46
2019-05-01T04:28:01.132Z,956.50
2019-05-01T04:29:01.127Z,956.53
2019-05-01T04:31:05.646Z,956.53
2019-05-01T04:32:05.636Z,956.55
2019-05-01T04:34:10.116Z,956.57
2019-05-01T04:35:10.106Z,956.61
2019-05-01T04:37:14.586Z,956.62
2019-05-01T04:38:14.584Z,956.59
2019-05-01T04:39:14.586Z,956.65
2019-05-01T04:40:18.520Z,956.67
2019-05-01T04:41:14.599Z,956.66
2019-05-01T04:42:14.609Z,956.71
2019-05-01T04:43:14.616Z,956.68
2019-05-01T04:44:14.622Z,956.69
2019-05-01T04:45:14.626Z,956.69
2019-05-01T04:46:14.632Z,956.72
2019-05-01T04:47:14.643Z,956.65
2019-05-01T04:48:14.652Z,956.70
2019-05-01T04:49:17.837Z,956.72
2019-05-01T04:50:14.657Z,956.70
2019-05-01T04:51:14.661Z,956.73
2019-05-01T04:52:14.666Z,956.70
2019-05-01T04:53:14.677Z,956.71
2019-05-01T04:54:14.683Z,956.72
2019-05-01T04:55:14.703Z,956.77
2019-05-01T04:56:14.695Z,956.77
2019-05-01T04:57:14.703Z,956.78
2019-05-01T04:58:14.709Z,956.81
2019-05-01T04:59:14.716Z,956.79
2019-05-01T05:00:14.720Z,956.79
2019-05-01T05:01:14.727Z,956.80
2019-05-01T05:02:14.739Z,956.82
2019-05-01T05:03:14.740Z,956.82
2019-05-01T05:04:14.745Z,956.83
2019-05-01T05:05:14.759Z,956.85
2019-05-01T05:06:14.759Z,956.83
2019-05-01T05:07:14.767Z,956.83
2019-05-01T05:08:14.773Z,956.90
2019-05-01T05:09:14.776Z,956.85
2019-05-01T05:10:14.783Z,956.88
2019-05-01T05:11:14.791Z,956.91
2019-05-01T05:12:14.798Z,956.89
2019-05-01T05:13:14.804Z,956.90
2019-05-01T05:14:14.812Z,956.91
2019-05-01T05:15:14.815Z,956.92
2019-05-01T05:16:14.826Z,956.93
2019-05-01T05:17:14.830Z,956.91
2019-05-01T05:18:14.841Z,956.89
2019-05-01T05:19:14.850Z,956.89
2019-05-01T05:20:14.849Z,956.89
2019-05-01T05:21:14.851Z,956.95
2019-05-01T05:22:16.544Z,956.89
2019-05-01T05:23:14.870Z,956.89
2019-05-01T05:24:14.880Z,956.90
2019-05-01T05:25:14.882Z,956.89
2019-05-01T05:26:14.884Z,956.91
2019-05-01T05:27:14.897Z,956.90
2019-05-01T05:28:14.902Z,956.91
2019-05-01T05:29:14.911Z,956.86
2019-05-01T05:30:14.916Z,956.89
2019-05-01T05:31:14.926Z,956.90
2019-05-01T05:32:14.927Z,956.92
2019-05-01T05:33:18.604Z,956.93
2019-05-01T05:34:17.936Z,956.95
2019-05-01T05:35:14.951Z,956.94
2019-05-01T05:36:14.955Z,956.92
2019-05-01T05:37:14.969Z,956.94
2019-05-01T05:38:14.969Z,956.97
2019-05-01T05:39:14.974Z,956.96
2019-05-01T05:40:14.977Z,956.96
2019-05-01T05:41:14.994Z,956.96
2019-05-01T05:42:14.995Z,956.97
2019-05-01T05:43:15.001Z,956.97
2019-05-01T05:44:15.010Z,956.98
2019-05-01T05:45:15.010Z,956.96
2019-05-01T05:46:15.020Z,957.02
2019-05-01T05:47:15.026Z,957.00
2019-05-01T05:48:15.031Z,957.01
2019-05-01T05:49:15.042Z,957.03
2019-05-01T05:50:15.049Z,957.03
2019-05-01T05:51:15.056Z,957.02
2019-05-01T05:52:15.060Z,957.03
2019-05-01T05:53:15.069Z,957.05
2019-05-01T05:54:15.070Z,957.00
2019-05-01T05:55:15.082Z,957.01
2019-05-01T05:56:15.088Z,957.06
2019-05-01T05:57:15.096Z,957.05
2019-05-01T05:58:15.110Z,957.04
2019-05-01T05:59:15.111Z,957.01
2019-05-01T06:00:15.109Z,957.03
2019-05-01T06:01:15.125Z,957.00
2019-05-01T06:02:15.130Z,957.01
2019-05-01T06:03:15.140Z,957.06
2019-05-01T06:04:15.142Z,957.04
2019-05-01T06:05:15.154Z,957.03
2019-05-01T06:06:15.180Z,957.06
2019-05-01T06:07:15.167Z,957.06
2019-05-01T06:08:15.169Z,957.07
2019-05-01T06:09:15.615Z,957.03
2019-05-01T06:10:18.459Z,957.01
2019-05-01T06:11:15.188Z,957.03
2019-05-01T06:12:15.196Z,957.04
2019-05-01T06:13:18.016Z,957.03
2019-05-01T06:14:15.210Z,957.04
2019-05-01T06:15:15.219Z,957.05
2019-05-01T06:16:16.339Z,957.01
2019-05-01T06:17:15.240Z,957.02
2019-05-01T06:18:15.250Z,957.03
2019-05-01T06:19:16.317Z,957.00
2019-05-01T06:20:15.248Z,957.03
2019-05-01T06:21:15.262Z,957.03
2019-05-01T06:22:15.270Z,957.03
2019-05-01T06:23:15.780Z,957.04
2019-05-01T06:24:15.283Z,957.03
2019-05-01T06:25:22.444Z,957.02
2019-05-01T06:26:15.297Z,957.00
2019-05-01T06:27:15.301Z,957.01
2019-05-01T06:28:15.305Z,957.03
2019-05-01T06:29:15.315Z,957.05
2019-05-01T06:30:15.322Z,957.05
2019-05-01T06:31:17.800Z,957.09
2019-05-01T06:32:15.343Z,957.09
2019-05-01T06:33:15.344Z,957.10
2019-05-01T06:34:15.354Z,957.08
2019-05-01T06:35:15.356Z,957.11
2019-05-01T06:36:15.366Z,957.13
2019-05-01T06:37:15.393Z,957.08
2019-05-01T06:38:15.383Z,957.07
2019-05-01T06:39:15.389Z,957.11
2019-05-01T06:40:18.735Z,957.12
2019-05-01T06:41:15.400Z,957.14
2019-05-01T06:42:16.960Z,957.15
2019-05-01T06:43:15.419Z,957.13
2019-05-01T06:44:15.426Z,957.15
2019-05-01T06:45:16.801Z,957.15
2019-05-01T06:46:15.438Z,957.16
2019-05-01T06:47:15.441Z,957.18
2019-05-01T06:48:17.791Z,957.18
2019-05-01T06:49:15.459Z,957.16
2019-05-01T06:50:15.465Z,957.19
2019-05-01T06:51:17.817Z,957.17
2019-05-01T06:52:15.478Z,957.16
2019-05-01T06:53:15.490Z,957.16
2019-05-01T06:54:16.495Z,957.15
2019-05-01T06:55:15.512Z,957.19
2019-05-01T06:56:15.510Z,957.16
2019-05-01T06:57:15.516Z,957.06
2019-05-01T06:58:20.379Z,957.07
2019-05-01T06:59:15.533Z,957.04
2019-05-01T07:00:15.542Z,957.03
2019-05-01T07:01:18.834Z,957.07
2019-05-01T07:02:16.095Z,957.04
2019-05-01T07:03:15.557Z,957.00
2019-05-01T07:04:15.571Z,956.99
2019-05-01T07:05:16.483Z,956.99
2019-05-01T07:06:15.584Z,957.02
2019-05-01T07:07:24.997Z,957.01
2019-05-01T07:08:24.315Z,957.03
2019-05-01T07:09:27.481Z,957.03
2019-05-01T07:10:15.610Z,957.00
2019-05-01T07:11:16.623Z,957.01
2019-05-01T07:12:15.631Z,956.98
2019-05-01T07:13:15.638Z,956.95
2019-05-01T07:14:17.378Z,956.93
2019-05-01T07:15:15.654Z,956.94
2019-05-01T07:16:15.656Z,956.92
2019-05-01T07:17:15.664Z,956.92
2019-05-01T07:18:18.698Z,956.95
2019-05-01T07:19:15.679Z,956.95
2019-05-01T07:20:16.672Z,956.91
2019-05-01T07:21:15.692Z,956.92
2019-05-01T07:22:15.697Z,956.93
2019-05-01T07:23:17.481Z,956.91
2019-05-01T07:24:15.717Z,956.93
2019-05-01T07:25:15.723Z,956.97
2019-05-01T07:26:15.730Z,956.96
2019-05-01T07:27:18.802Z,956.91
2019-05-01T07:28:15.744Z,956.94
2019-05-01T07:29:15.752Z,956.97
2019-05-01T07:30:19.307Z,956.98
2019-05-01T07:31:15.764Z,956.99
2019-05-01T07:32:15.774Z,956.97
2019-05-01T07:33:16.763Z,956.94
2019-05-01T07:34:16.923Z,956.95
2019-05-01T07:35:15.797Z,956.96
2019-05-01T07:36:16.519Z,956.94
2019-05-01T07:37:15.812Z,956.92
2019-05-01T07:38:15.817Z,956.95
2019-05-01T07:39:15.901Z,956.93
2019-05-01T07:40:15.831Z,956.91
2019-05-01T07:41:15.839Z,956.92
2019-05-01T07:42:15.847Z,956.94
2019-05-01T07:43:19.018Z,956.91
2019-05-01T07:44:15.856Z,956.94
2019-05-01T07:45:15.867Z,956.92
2019-05-01T07:46:18.342Z,956.93
2019-05-01T07:47:15.882Z,956.92
2019-05-01T07:48:15.890Z,956.90
2019-05-01T07:49:17.712Z,956.90
2019-05-01T07:50:15.906Z,956.90
2019-05-01T07:51:15.914Z,956.90
2019-05-01T07:52:17.201Z,956.89
2019-05-01T07:53:15.925Z,956.89
2019-05-01T07:54:15.935Z,956.88
2019-05-01T07:55:18.160Z,956.87
2019-05-01T07:56:17.269Z,956.84
2019-05-01T07:57:15.961Z,956.84
2019-05-01T07:58:17.972Z,956.85
2019-05-01T07:59:15.971Z,956.84
2019-05-01T08:00:15.979Z,956.86
2019-05-01T08:01:18.279Z,956.84
2019-05-01T08:02:15.993Z,956.85
2019-05-01T08:03:16.002Z,956.86
2019-05-01T08:04:19.746Z,956.84
2019-05-01T08:05:16.018Z,956.84
2019-05-01T08:06:20.845Z,956.86
2019-05-01T08:07:16.030Z,956.84
2019-05-01T08:08:16.042Z,956.85
2019-05-01T08:09:16.481Z,956.84
2019-05-01T08:10:16.053Z,956.85
2019-05-01T08:11:16.064Z,956.89
2019-05-01T08:12:19.007Z,956.85
2019-05-01T08:13:16.076Z,956.84
2019-05-01T08:14:18.414Z,956.85
2019-05-01T08:15:16.090Z,956.83
2019-05-01T08:16:16.096Z,956.87
2019-05-01T08:17:18.151Z,956.80
2019-05-01T08:18:16.113Z,956.79
2019-05-01T08:19:16.119Z,956.76
2019-05-01T08:20:16.817Z,956.79
2019-05-01T08:21:16.136Z,956.80
2019-05-01T08:22:16.151Z,956.80
2019-05-01T08:23:16.146Z,956.80
2019-05-01T08:24:18.026Z,956.80
2019-05-01T08:25:16.166Z,956.80
2019-05-01T08:26:16.176Z,956.80
2019-05-01T08:27:20.192Z,956.80
2019-05-01T08:28:16.200Z,956.78
2019-05-01T08:29:16.202Z,956.77
2019-05-01T08:30:17.370Z,956.78
2019-05-01T08:31:16.209Z,956.78
2019-05-01T08:32:16.219Z,956.77
2019-05-01T08:33:16.231Z,956.76
2019-05-01T08:34:16.228Z,956.76
2019-05-01T08:35:16.244Z,956.77
2019-05-01T08:36:16.258Z,956.76
2019-05-01T08:37:17.899Z,956.75
2019-05-01T08:38:16.269Z,956.75
2019-05-01T08:39:16.276Z,956.78
2019-05-01T08:40:20.515Z,956.77
2019-05-01T08:41:16.289Z,956.76
2019-05-01T08:42:16.299Z,956.74
2019-05-01T08:43:18.135Z,956.78
2019-05-01T08:44:16.317Z,956.79
2019-05-01T08:45:16.319Z,956.77
2019-05-01T08:46:16.638Z,956.81
2019-05-01T08:47:16.332Z,956.81
2019-05-01T08:48:16.344Z,956.81
2019-05-01T08:49:16.353Z,956.78
2019-05-01T08:50:19.833Z,956.80
2019-05-01T08:51:16.364Z,956.80
2019-05-01T08:52:16.370Z,956.80
2019-05-01T08:53:18.155Z,956.80
2019-05-01T08:54:23.621Z,956.77
2019-05-01T08:56:21.916Z,956.76
2019-05-01T08:57:20.902Z,956.76
2019-05-01T08:59:25.839Z,956.79
2019-05-01T09:00:24.873Z,956.76
2019-05-01T09:02:28.891Z,956.79
2019-05-01T09:03:28.889Z,956.79
2019-05-01T09:04:30.603Z,956.77
2019-05-01T09:05:32.295Z,956.78
2019-05-01T09:06:34.938Z,956.81
2019-05-01T09:07:28.937Z,956.78
2019-05-01T09:08:32.041Z,956.76
2019-05-01T09:09:28.953Z,956.80
2019-05-01T09:10:28.947Z,956.82
2019-05-01T09:11:31.747Z,956.78
2019-05-01T09:12:28.956Z,956.77
2019-05-01T09:13:28.966Z,956.80
2019-05-01T09:14:29.812Z,956.79
2019-05-01T09:15:28.978Z,956.80
2019-05-01T09:16:30.186Z,956.78
2019-05-01T09:17:28.997Z,956.79
2019-05-01T09:18:29.008Z,956.78
2019-05-01T09:19:29.017Z,956.78
2019-05-01T09:20:29.024Z,956.77
2019-05-01T09:21:29.032Z,956.74
2019-05-01T09:22:29.042Z,956.77
2019-05-01T09:23:29.049Z,956.73
2019-05-01T09:24:29.437Z,956.73
2019-05-01T09:25:30.871Z,956.74
2019-05-01T09:26:29.075Z,956.73
2019-05-01T09:27:29.861Z,956.73
2019-05-01T09:28:29.087Z,956.74
2019-05-01T09:29:29.095Z,956.73
2019-05-01T09:30:29.103Z,956.73
2019-05-01T09:31:33.920Z,956.71
2019-05-01T09:32:29.124Z,956.72
2019-05-01T09:33:30.806Z,956.73
2019-05-01T09:34:29.136Z,956.68
2019-05-01T09:35:29.145Z,956.72
2019-05-01T09:36:29.153Z,956.74
2019-05-01T09:37:29.164Z,956.72
2019-05-01T09:38:29.171Z,956.68
2019-05-01T09:39:29.176Z,956.71
2019-05-01T09:40:29.190Z,956.67
2019-05-01T09:41:38.072Z,956.69
2019-05-01T09:42:29.205Z,956.71
2019-05-01T09:43:31.019Z,956.67
2019-05-01T09:44:29.223Z,956.68
2019-05-01T09:45:29.231Z,956.68
2019-05-01T09:46:29.236Z,956.67
2019-05-01T09:47:29.245Z,956.68
2019-05-01T09:48:29.250Z,956.66
2019-05-01T09:49:29.271Z,956.66
2019-05-01T09:50:30.469Z,956.66
2019-05-01T09:51:29.282Z,956.64
2019-05-01T09:52:29.295Z,956.65
2019-05-01T09:53:29.638Z,956.67
2019-05-01T09:54:29.303Z,956.66
2019-05-01T09:55:29.311Z,956.68
2019-05-01T09:56:29.323Z,956.64
2019-05-01T09:57:29.330Z,956.63
2019-05-01T09:58:29.340Z,956.66
2019-05-01T09:59:29.347Z,956.63
2019-05-01T10:00:29.356Z,956.62
2019-05-01T10:01:32.814Z,956.59
2019-05-01T10:02:29.374Z,956.59
2019-05-01T10:03:29.380Z,956.61
2019-05-01T10:04:30.292Z,956.62
2019-05-01T10:05:29.434Z,956.59
2019-05-01T10:06:29.406Z,956.53
2019-05-01T10:07:30.838Z,956.49
2019-05-01T10:08:29.419Z,956.53
2019-05-01T10:09:29.431Z,956.61
2019-05-01T10:10:30.579Z,956.59
2019-05-01T10:11:29.448Z,956.59
2019-05-01T10:12:29.494Z,956.59
2019-05-01T10:13:29.462Z,956.59
2019-05-01T10:14:31.578Z,956.62
2019-05-01T10:15:29.485Z,956.60
2019-05-01T10:16:29.499Z,956.56
2019-05-01T10:17:29.503Z,956.58
2019-05-01T10:18:29.508Z,956.58
2019-05-01T10:19:29.515Z,956.54
2019-05-01T10:20:29.530Z,956.54
2019-05-01T10:21:29.537Z,956.53
2019-05-01T10:22:32.983Z,956.55
2019-05-01T10:23:29.553Z,956.54
2019-05-01T10:24:31.939Z,956.52
2019-05-01T10:25:29.564Z,956.57
2019-05-01T10:26:29.574Z,956.57
2019-05-01T10:27:30.895Z,956.52
2019-05-01T10:28:29.599Z,956.56
2019-05-01T10:29:29.604Z,956.54
2019-05-01T10:30:31.722Z,956.54
2019-05-01T10:31:29.626Z,956.50
2019-05-01T10:32:29.632Z,956.46
2019-05-01T10:33:32.705Z,956.50
2019-05-01T10:34:29.653Z,956.45
2019-05-01T10:35:41.842Z,956.52
2019-05-01T10:36:29.666Z,956.43
2019-05-01T10:37:33.586Z,956.44
2019-05-01T10:38:29.698Z,956.42
2019-05-01T10:39:30.275Z,956.46
2019-05-01T10:40:32.252Z,956.44
2019-05-01T10:41:29.707Z,956.45
2019-05-01T10:42:29.720Z,956.41
2019-05-01T10:43:29.732Z,956.37
2019-05-01T10:44:29.741Z,956.35
2019-05-01T10:45:29.746Z,956.39
2019-05-01T10:46:29.754Z,956.38
2019-05-01T10:47:29.761Z,956.37
2019-05-01T10:48:29.772Z,956.38
2019-05-01T10:49:29.799Z,956.38
2019-05-01T10:50:29.790Z,956.39
2019-05-01T10:51:29.797Z,956.36
2019-05-01T10:52:29.806Z,956.32
2019-05-01T10:53:29.818Z,956.32
2019-05-01T10:54:29.826Z,956.36
2019-05-01T10:55:29.838Z,956.32
2019-05-01T10:56:29.853Z,956.34
2019-05-01T10:57:29.856Z,956.27
2019-05-01T10:58:29.863Z,956.34
2019-05-01T10:59:29.869Z,956.32
2019-05-01T11:00:29.885Z,956.31
2019-05-01T11:01:29.887Z,956.32
2019-05-01T11:02:29.900Z,956.32
2019-05-01T11:03:29.910Z,956.28
2019-05-01T11:04:29.917Z,956.30
2019-05-01T11:05:29.927Z,956.31
2019-05-01T11:06:29.937Z,956.39
2019-05-01T11:07:29.946Z,956.41
2019-05-01T11:08:29.955Z,956.45
2019-05-01T11:09:29.964Z,956.48
2019-05-01T11:10:29.976Z,956.58
2019-05-01T11:11:29.984Z,956.59
2019-05-01T11:12:29.998Z,956.63
2019-05-01T11:13:30.004Z,956.63
2019-05-01T11:14:30.021Z,956.64
2019-05-01T11:15:30.034Z,956.68
2019-05-01T11:16:30.045Z,956.66
2019-05-01T11:17:30.066Z,956.69
2019-05-01T11:18:30.078Z,956.76
2019-05-01T11:19:30.089Z,956.74
2019-05-01T11:20:30.101Z,956.67
2019-05-01T11:21:30.111Z,956.71
2019-05-01T11:22:30.131Z,956.73
2019-05-01T11:23:30.149Z,956.78
2019-05-01T11:24:30.163Z,956.76
2019-05-01T11:25:30.180Z,956.72
2019-05-01T11:26:30.197Z,956.75
2019-05-01T11:27:30.225Z,956.70
2019-05-01T11:28:30.230Z,956.69
2019-05-01T11:29:30.246Z,956.69
2019-05-01T11:30:30.266Z,956.70
2019-05-01T11:31:30.283Z,956.68
2019-05-01T11:32:30.305Z,956.70
2019-05-01T11:33:30.312Z,956.70
2019-05-01T11:34:30.342Z,956.71
2019-05-01T11:35:30.359Z,956.76
2019-05-01T11:36:30.372Z,956.75
2019-05-01T11:37:30.392Z,956.80
2019-05-01T11:38:30.413Z,956.79
2019-05-01T11:39:30.434Z,956.81
2019-05-01T11:40:30.452Z,956.82
2019-05-01T11:41:30.488Z,956.80
2019-05-01T11:42:30.490Z,956.78
2019-05-01T11:43:30.511Z,956.78
2019-05-01T11:44:30.530Z,956.81
2019-05-01T11:45:30.550Z,956.76
2019-05-01T11:46:30.574Z,956.75
2019-05-01T11:47:30.589Z,956.77
2019-05-01T11:48:32.034Z,956.84
2019-05-01T11:49:30.628Z,956.88
2019-05-01T11:50:30.653Z,956.90
2019-05-01T11:51:30.669Z,956.87
2019-05-01T11:52:30.693Z,956.84
2019-05-01T11:53:30.711Z,956.84
2019-05-01T11:54:30.731Z,956.80
2019-05-01T11:55:30.752Z,956.78
2019-05-01T11:56:30.769Z,956.80
2019-05-01T11:57:30.792Z,956.80
2019-05-01T11:58:30.806Z,956.82
2019-05-01T11:59:32.744Z,956.82
2019-05-01T12:00:30.855Z,956.82
2019-05-01T12:01:30.879Z,956.81
2019-05-01T12:02:30.900Z,956.80
2019-05-01T12:03:30.916Z,956.76
2019-05-01T12:04:30.943Z,956.83
2019-05-01T12:05:30.960Z,956.85
2019-05-01T12:06:30.976Z,956.89
2019-05-01T12:07:30.996Z,956.86
2019-05-01T12:08:31.020Z,956.84
2019-05-01T12:09:31.044Z,956.88
2019-05-01T12:10:31.063Z,956.88
2019-05-01T12:11:31.091Z,956.87
2019-05-01T12:12:31.108Z,956.84
2019-05-01T12:13:43.254Z,956.83
2019-05-01T12:14:31.153Z,956.79
2019-05-01T12:15:31.170Z,956.82
2019-05-01T12:16:31.192Z,956.76
2019-05-01T12:17:31.209Z,956.77
2019-05-01T12:18:31.235Z,956.72
2019-05-01T12:19:31.259Z,956.71
2019-05-01T12:20:31.278Z,956.74
2019-05-01T12:21:31.300Z,956.72
2019-05-01T12:22:31.318Z,956.73
2019-05-01T12:23:31.339Z,956.75
2019-05-01T12:24:31.364Z,956.73
2019-05-01T12:25:31.383Z,956.72
2019-05-01T12:26:31.404Z,956.71
2019-05-01T12:27:31.427Z,956.72
2019-05-01T12:28:31.453Z,956.69
2019-05-01T12:29:31.469Z,956.68
2019-05-01T12:30:31.495Z,956.69
2019-05-01T12:31:31.512Z,956.72
2019-05-01T12:32:31.538Z,956.71
2019-05-01T12:33:31.554Z,956.75
2019-05-01T12:34:31.576Z,956.74
2019-05-01T12:35:31.596Z,956.75
2019-05-01T12:36:36.311Z,956.74
2019-05-01T12:37:31.642Z,956.75
2019-05-01T12:38:31.662Z,956.74
2019-05-01T12:39:31.686Z,956.76
2019-05-01T12:40:31.708Z,956.71
2019-05-01T12:41:31.730Z,956.72
2019-05-01T12:42:31.745Z,956.72
2019-05-01T12:43:31.771Z,956.75
2019-05-01T12:44:31.795Z,956.65
2019-05-01T12:45:31.814Z,956.66
2019-05-01T12:46:31.833Z,956.63
2019-05-01T12:47:31.855Z,956.31
2019-05-01T12:48:31.875Z,956.02
2019-05-01T12:49:31.899Z,956.48
2019-05-01T12:50:31.918Z,956.51
2019-05-01T12:51:31.943Z,956.01
2019-05-01T12:52:31.958Z,956.52
2019-05-01T12:53:31.977Z,955.97
2019-05-01T12:54:31.997Z,956.47
2019-05-01T12:55:32.023Z,956.42
2019-05-01T12:56:32.042Z,956.37
2019-05-01T12:57:32.056Z,956.25
2019-05-01T12:58:32.080Z,956.17
2019-05-01T12:59:32.100Z,956.17
2019-05-01T13:00:32.122Z,956.20
2019-05-01T13:01:32.140Z,956.20
2019-05-01T13:02:32.162Z,956.12
2019-05-01T13:03:32.183Z,956.06
2019-05-01T13:04:32.200Z,956.07
2019-05-01T13:05:32.220Z,956.07
2019-05-01T13:06:32.244Z,956.11
2019-05-01T13:07:32.261Z,955.87